WOLFEBORO: From 01/10/2019 02:00 to 01/24/2019 16:00

Date PRECIPITATION INCREMENT [IN] AIR TEMPERATURE [DEGF] RELATIVE HUMIDITY [%] BAROMETRIC PRESSURE [INHG] AVERAGE WIND SPEED [FT/S] MAXIMUM WIND SPEED [FT/S] MINIMUM WIND SPEED [FT/S] AVERAGE WIND DIRECTION [] MAXIMUM WIND DIRECTION [] MINIMUM WIND DIRECTION []
01/24/2019 04:00 0.00 -- -- 29.14 0.67 9.67 0.00 0.0 28.0 0.0
01/24/2019 03:00 0.01 41.0 84.4 29.16 0.50 6.75 0.00 0.0 47.0 0.0
01/24/2019 02:00 0.04 39.0 83.1 29.20 0.00 5.25 0.00 0.3 42.3 0.0
01/24/2019 01:00 0.03 38.0 79.2 29.22 1.00 9.75 0.00 0.5 73.8 0.0
01/24/2019 00:00 0.01 37.0 78.2 29.23 2.50 10.25 0.00 0.0 72.0 0.0
01/23/2019 23:00 0.00 38.0 77.4 29.24 4.00 14.50 0.00 0.5 47.3 0.0
01/23/2019 22:00 0.00 36.0 74.7 29.26 1.75 9.25 0.00 0.5 39.0 0.0
01/23/2019 21:00 0.00 35.0 71.9 29.28 1.50 6.50 0.00 1.3 67.3 0.0
01/23/2019 20:00 0.01 30.0 75.3 29.31 0.00 0.00 0.00 0.0 10.5 0.0
01/23/2019 19:00 0.01 29.0 73.4 29.32 0.00 0.00 0.00 0.0 16.3 0.0
01/23/2019 18:00 0.02 29.0 71.4 29.35 0.00 0.00 0.00 0.0 8.0 0.0
01/23/2019 17:00 0.02 30.0 59.3 29.36 0.00 0.00 0.00 0.0 0.0 0.0
01/23/2019 16:00 0.04 32.0 43.5 29.40 0.00 0.00 0.00 2.0 82.0 0.0
01/23/2019 15:00 0.04 32.0 27.3 29.41 0.00 0.00 0.00 1.0 110.0 0.0
01/23/2019 14:00 0.06 33.0 19.6 29.43 0.00 0.50 0.00 0.5 59.0 0.0
01/23/2019 13:00 0.04 30.0 26.2 29.46 0.25 3.25 0.00 0.3 57.8 0.0
01/23/2019 12:00 0.00 29.0 28.3 29.49 0.25 3.75 0.00 0.3 65.8 0.0
01/23/2019 11:00 0.00 27.0 25.0 29.54 0.25 2.00 0.00 1.0 115.0 0.0
01/23/2019 10:00 0.00 25.0 25.1 29.57 0.25 5.50 0.00 0.0 56.8 0.0
01/23/2019 09:00 0.00 22.0 24.4 29.60 0.00 3.00 0.00 0.0 19.8 0.0
01/23/2019 08:00 0.00 21.0 23.4 29.63 0.00 2.50 0.00 0.0 10.5 0.0
01/23/2019 07:00 0.00 15.0 40.9 29.64 0.00 2.25 0.00 0.0 0.0 0.0
01/23/2019 06:00 0.00 14.0 43.1 29.68 0.00 0.00 0.00 0.0 0.0 0.0
01/23/2019 05:00 0.00 12.0 47.9 29.70 0.00 0.00 0.00 0.0 0.0 0.0
01/23/2019 04:00 0.00 13.0 38.3 29.73 0.00 0.00 0.00 0.0 0.0 0.0
01/23/2019 03:00 0.00 14.0 44.9 29.76 0.00 0.00 0.00 0.0 0.0 0.0
01/23/2019 02:00 0.00 14.0 39.0 29.77 0.00 0.00 0.00 0.0 0.0 0.0
01/23/2019 01:00 0.00 15.0 21.3 29.80 0.00 0.00 0.00 0.0 10.3 0.0
01/23/2019 00:00 0.00 15.0 33.6 29.83 0.00 0.00 0.00 0.8 87.8 0.0
01/22/2019 23:00 0.00 15.0 23.6 29.83 0.00 0.00 0.00 0.0 26.5 0.0
01/22/2019 22:00 0.00 15.0 15.8 29.84 0.25 4.00 0.00 1.8 133.0 0.0
01/22/2019 21:00 0.00 15.0 13.2 29.84 0.50 7.25 0.00 0.5 72.3 0.0
01/22/2019 20:00 0.00 15.0 13.3 29.84 3.00 12.75 0.00 0.3 54.0 0.0
01/22/2019 19:00 0.00 14.0 12.9 29.85 5.25 13.50 0.00 0.0 48.5 0.0
01/22/2019 18:00 0.00 14.0 12.7 29.85 4.25 13.00 0.00 0.3 57.0 0.0
01/22/2019 17:00 0.00 15.0 12.1 29.83 7.00 17.00 0.00 0.0 48.5 0.0
01/22/2019 16:00 0.00 16.0 11.2 29.82 7.75 20.25 0.00 0.3 60.0 0.0
01/22/2019 15:00 0.00 18.0 8.4 29.79 7.00 18.75 0.00 0.0 63.0 0.0
01/22/2019 14:00 0.00 20.0 6.4 29.77 8.00 19.75 0.25 0.0 42.3 0.0
01/22/2019 13:00 0.00 16.0 8.8 29.77 7.50 18.75 0.00 0.0 61.5 0.0
01/22/2019 12:00 0.00 13.0 10.1 29.75 7.25 17.50 0.00 0.3 51.3 0.0
01/22/2019 11:00 0.00 11.0 12.4 29.77 8.75 18.75 0.75 0.5 63.0 0.0
01/22/2019 10:00 0.00 7.0 16.1 29.74 7.25 18.50 0.00 0.3 54.3 0.0
01/22/2019 09:00 0.00 4.0 20.1 29.71 8.50 21.00 0.25 0.3 54.8 0.0
01/22/2019 08:00 0.00 2.0 25.9 29.67 6.75 19.50 0.25 0.0 58.0 0.0
01/22/2019 07:00 0.00 2.0 30.3 29.63 4.25 14.00 0.00 0.0 50.3 0.0
01/22/2019 06:00 0.00 1.0 31.8 29.59 3.75 15.00 0.00 0.0 49.0 0.0
01/22/2019 05:00 0.00 2.0 29.2 29.56 5.25 16.25 0.00 0.0 40.3 0.0
01/22/2019 04:00 0.00 1.0 30.1 29.52 7.75 22.25 0.25 0.0 32.8 0.0
01/22/2019 03:00 0.00 1.0 33.5 29.50 6.25 21.25 0.00 0.0 39.0 0.0
01/22/2019 02:00 0.00 1.0 33.8 29.47 8.75 26.00 0.00 0.0 63.8 0.0
01/22/2019 01:00 0.00 1.0 35.0 29.41 10.00 27.25 0.25 0.0 46.3 0.0
01/22/2019 00:00 0.00 1.0 34.9 29.38 8.25 23.25 0.00 0.0 45.3 0.0
01/21/2019 23:00 0.00 1.0 38.6 29.35 8.00 21.50 0.75 0.0 46.8 0.0
01/21/2019 22:00 0.00 2.0 36.1 29.32 8.25 23.00 0.00 0.0 39.5 0.0
01/21/2019 21:00 0.00 1.0 34.7 29.31 7.75 22.50 0.00 0.0 42.0 0.0
01/21/2019 20:00 0.00 0.0 38.7 29.29 7.50 24.75 0.00 0.0 32.8 0.0
01/21/2019 19:00 0.00 -1.0 40.1 29.26 6.75 20.00 0.00 0.0 47.5 0.0
01/21/2019 18:00 0.00 -2.0 36.8 29.23 6.75 19.00 0.00 0.0 42.8 0.0
01/21/2019 17:00 0.00 -2.0 33.4 29.18 8.00 23.25 0.00 0.0 18.5 0.0
01/21/2019 16:00 0.00 -1.0 29.5 29.14 8.00 23.50 0.00 0.0 38.0 0.0
01/21/2019 15:00 0.00 0.0 24.1 29.11 8.75 25.75 0.00 0.0 51.8 0.0
01/21/2019 14:00 0.00 0.0 22.2 29.08 7.75 24.25 0.00 0.0 37.0 0.0
01/21/2019 13:00 0.00 1.0 29.3 29.06 8.25 25.75 0.00 0.0 52.8 0.0
01/21/2019 12:00 0.00 0.0 32.1 29.06 9.25 24.00 0.00 0.0 52.8 0.0
01/21/2019 11:00 0.00 -1.0 37.0 29.06 9.25 26.50 0.00 0.0 50.3 0.0
01/21/2019 10:00 0.00 -1.0 40.2 29.04 8.75 25.25 0.00 0.0 48.8 0.0
01/21/2019 09:00 0.00 -1.0 42.5 29.00 7.75 22.50 0.00 0.3 60.8 0.0
01/21/2019 08:00 0.00 -2.0 46.0 28.97 8.50 20.75 0.00 0.3 53.0 0.0
01/21/2019 07:00 0.00 -1.0 46.3 28.93 8.25 21.75 0.00 0.0 36.8 0.0
01/21/2019 06:00 0.00 0.0 44.1 28.90 8.00 21.25 0.00 0.0 53.0 0.0
01/21/2019 05:00 0.00 -1.0 49.7 28.89 7.50 20.75 0.00 0.0 36.0 0.0
01/21/2019 04:00 0.00 -1.0 50.0 28.87 7.00 18.75 0.00 0.0 48.5 0.0
01/21/2019 03:00 0.00 -1.0 50.8 28.86 6.75 19.00 0.00 0.0 45.0 0.0
01/21/2019 02:00 0.00 -1.0 50.9 28.83 5.75 17.50 0.00 0.0 61.3 0.0
01/21/2019 01:00 0.00 -1.0 51.4 28.81 7.50 22.75 0.00 0.3 60.5 0.0
01/21/2019 00:00 0.00 0.0 52.4 28.79 7.00 20.75 0.00 0.3 53.3 0.0
01/20/2019 23:00 0.00 2.0 53.3 28.77 7.75 20.50 0.00 0.0 58.8 0.0
01/20/2019 22:00 0.00 4.0 54.4 28.74 9.25 21.75 0.75 0.0 55.3 0.0
01/20/2019 21:00 0.00 7.0 57.5 28.71 8.50 24.75 0.00 0.0 37.3 0.0
01/20/2019 20:00 0.00 11.0 61.2 28.68 10.50 28.00 0.25 0.0 42.5 0.0
01/20/2019 19:00 0.00 14.0 71.7 28.66 6.50 19.25 0.25 0.0 61.0 0.0
01/20/2019 18:00 0.00 19.0 78.3 28.68 0.00 0.25 0.00 0.8 90.0 0.0
01/20/2019 17:00 0.00 17.0 77.1 28.67 0.00 1.25 0.00 0.0 10.8 0.0
01/20/2019 16:00 0.00 17.0 76.0 28.68 1.50 5.75 0.00 0.0 0.0 0.0
01/20/2019 15:00 0.00 17.0 75.5 28.69 3.75 12.25 0.00 0.0 0.0 0.0
01/20/2019 14:00 0.00 14.0 73.5 28.68 6.50 15.00 0.00 0.0 0.3 0.0
01/20/2019 13:00 0.00 13.0 75.0 28.73 8.25 20.50 0.00 0.0 0.0 0.0
01/20/2019 12:00 0.00 12.0 75.2 28.80 8.25 21.00 0.00 0.0 0.0 0.0
01/20/2019 11:00 0.00 12.0 76.3 28.87 9.50 26.00 0.25 0.0 0.0 0.0
01/20/2019 10:00 0.00 12.0 74.6 28.92 11.00 25.25 0.50 0.0 0.0 0.0
01/20/2019 09:00 0.00 11.0 72.7 29.01 8.00 21.50 0.00 0.0 0.0 0.0
01/20/2019 08:00 0.00 10.0 73.2 29.09 6.75 16.75 0.00 0.0 0.0 0.0
01/20/2019 07:00 0.00 10.0 71.6 29.14 8.25 21.25 0.00 0.0 1.8 0.0
01/20/2019 06:00 0.00 10.0 72.5 29.20 6.50 19.50 0.00 0.0 0.0 0.0
01/20/2019 05:00 0.00 10.0 73.8 29.27 6.75 18.75 0.00 0.0 6.5 0.0
01/20/2019 04:00 0.00 9.0 74.2 29.34 3.75 16.25 0.00 0.0 0.0 0.0
01/20/2019 03:00 0.00 10.0 74.4 29.38 6.50 20.50 0.00 0.0 0.0 0.0
01/20/2019 02:00 0.00 11.0 73.6 29.43 6.50 18.75 0.00 0.0 0.0 0.0
01/20/2019 01:00 0.00 12.0 73.0 29.50 5.25 14.25 0.00 0.0 0.0 0.0
01/20/2019 00:00 0.00 13.0 74.3 29.54 4.50 13.25 0.00 0.0 0.0 0.0
01/19/2019 23:00 0.00 13.0 72.6 29.56 3.50 11.75 0.00 0.0 0.0 0.0
01/19/2019 22:00 0.00 14.0 74.0 29.58 2.25 11.75 0.00 0.0 0.0 0.0
01/19/2019 21:00 0.00 15.0 74.5 29.61 1.25 9.50 0.00 0.0 0.0 0.0
01/19/2019 20:00 0.00 16.0 75.5 29.61 3.75 13.50 0.00 0.0 0.0 0.0
01/19/2019 19:00 0.00 17.0 76.2 29.59 4.00 13.00 0.00 0.0 0.0 0.0
01/19/2019 18:00 0.00 19.0 75.4 29.61 2.25 7.50 0.00 0.0 0.0 0.0
01/19/2019 17:00 0.00 23.0 31.3 29.61 0.00 0.00 0.00 0.0 0.0 0.0
01/19/2019 16:00 0.00 24.0 27.6 29.61 0.00 0.25 0.00 0.8 42.0 0.0
01/19/2019 15:00 0.00 24.0 25.8 29.58 0.00 0.00 0.00 1.0 69.5 0.0
01/19/2019 14:00 0.00 24.0 22.3 29.58 0.00 0.00 0.00 1.8 110.5 0.0
01/19/2019 13:00 0.00 24.0 21.1 29.61 0.50 5.50 0.00 0.8 74.8 0.0
01/19/2019 12:00 0.00 23.0 29.3 29.64 2.50 12.00 0.00 0.0 47.3 0.0
01/19/2019 11:00 0.00 21.0 38.6 29.65 0.75 7.50 0.00 0.8 76.0 0.0
01/19/2019 10:00 0.00 20.0 48.5 29.64 1.25 7.50 0.00 0.5 54.3 0.0
01/19/2019 09:00 0.00 19.0 53.7 29.63 1.00 5.75 0.00 0.8 71.8 0.0
01/19/2019 08:00 0.00 19.0 55.5 29.60 0.50 5.50 0.00 0.0 42.5 0.0
01/19/2019 07:00 0.00 17.0 61.6 29.58 0.00 1.50 0.00 2.0 77.5 0.0
01/19/2019 06:00 0.00 17.0 62.6 29.56 0.00 0.75 0.00 0.5 69.3 0.0
01/19/2019 05:00 0.00 20.0 55.7 29.54 0.00 6.50 0.00 0.5 66.5 0.0
01/19/2019 04:00 0.00 21.0 58.0 29.52 1.00 8.50 0.00 0.0 49.8 0.0
01/19/2019 03:00 0.00 21.0 69.3 29.50 0.00 1.75 0.00 0.0 24.0 0.0
01/19/2019 02:00 0.00 22.0 67.9 29.46 0.00 2.25 0.00 4.0 63.0 0.0
01/19/2019 01:00 0.00 22.0 72.5 29.43 0.00 0.00 0.00 0.0 37.8 0.0
01/19/2019 00:00 0.00 24.0 70.1 29.43 0.00 0.00 0.00 0.5 49.8 0.0
01/18/2019 23:00 0.00 23.0 75.2 29.41 0.00 0.00 0.00 0.0 0.0 0.0
01/18/2019 22:00 0.00 20.0 77.4 29.39 0.00 0.00 0.00 0.0 11.0 0.0
01/18/2019 21:00 0.00 21.0 75.1 29.37 0.00 0.00 0.00 0.0 0.0 0.0
01/18/2019 20:00 0.00 21.0 76.6 29.37 0.00 0.00 0.00 0.0 0.0 0.0
01/18/2019 19:00 0.00 21.0 74.7 29.35 0.00 0.00 0.00 0.0 0.0 0.0
01/18/2019 18:00 0.00 24.0 71.5 29.35 0.00 0.00 0.00 0.3 55.3 0.0
01/18/2019 17:00 0.00 25.0 63.6 29.36 0.00 0.00 0.00 7.3 141.3 0.0
01/18/2019 16:00 0.00 25.0 57.3 29.34 0.00 0.00 0.00 0.0 15.5 0.0
01/18/2019 15:00 0.00 25.0 57.1 29.34 0.00 0.00 0.00 0.0 0.0 0.0
01/18/2019 14:00 0.00 26.0 46.1 29.36 0.00 0.00 0.00 0.3 79.8 0.0
01/18/2019 13:00 0.00 24.0 41.4 29.39 0.00 0.00 0.00 0.8 86.3 0.0
01/18/2019 12:00 0.00 23.0 46.5 29.43 0.00 0.00 0.00 0.0 40.5 0.0
01/18/2019 11:00 0.00 22.0 40.4 29.47 0.00 0.00 0.00 0.0 37.0 0.0
01/18/2019 10:00 0.00 20.0 45.6 29.48 0.00 0.00 0.00 0.0 0.0 0.0
01/18/2019 09:00 0.00 18.0 48.8 29.49 0.00 0.00 0.00 0.0 0.0 0.0
01/18/2019 08:00 0.00 16.0 55.0 29.50 0.00 0.00 0.00 0.0 0.0 0.0
01/18/2019 07:00 0.00 14.0 54.3 29.50 0.00 0.00 0.00 0.0 0.0 0.0
01/18/2019 06:00 0.00 13.0 54.6 29.50 0.00 0.00 0.00 0.0 0.0 0.0
01/18/2019 05:00 0.00 14.0 52.3 29.52 0.00 0.00 0.00 0.0 0.0 0.0
01/18/2019 04:00 0.00 15.0 41.9 29.55 0.00 0.25 0.00 0.0 0.0 0.0
01/18/2019 03:00 0.00 16.0 42.5 29.58 0.00 0.00 0.00 0.0 0.0 0.0
01/18/2019 02:00 0.00 15.0 41.0 29.59 0.00 0.00 0.00 0.0 0.0 0.0
01/18/2019 01:00 0.00 14.0 45.5 29.61 0.00 0.00 0.00 0.0 0.0 0.0
01/18/2019 00:00 0.00 14.0 46.6 29.64 0.00 0.00 0.00 0.0 0.0 0.0
01/17/2019 23:00 0.00 13.0 45.6 29.66 0.00 0.00 0.00 0.0 0.0 0.0
01/17/2019 22:00 0.00 13.0 41.1 29.66 0.00 0.00 0.00 0.0 0.0 0.0
01/17/2019 21:00 0.00 14.0 45.6 29.66 0.00 0.00 0.00 0.0 0.0 0.0
01/17/2019 20:00 0.00 14.0 35.6 29.66 0.00 0.00 0.00 0.0 0.0 0.0
01/17/2019 19:00 0.00 15.0 30.1 29.67 0.00 0.00 0.00 0.0 0.0 0.0
01/17/2019 18:00 0.00 14.0 24.4 29.66 0.00 0.00 0.00 0.0 20.5 0.0
01/17/2019 17:00 0.00 17.0 19.7 29.65 0.00 0.00 0.00 1.3 84.0 0.0
01/17/2019 16:00 0.00 18.0 10.0 29.66 0.00 4.75 0.00 0.8 89.8 0.0
01/17/2019 15:00 0.00 20.0 7.3 29.66 0.75 9.75 0.00 0.3 49.0 0.0
01/17/2019 14:00 0.00 23.0 5.6 29.66 2.25 11.00 0.00 0.0 51.0 0.0
01/17/2019 13:00 0.00 16.0 12.9 29.68 2.75 12.50 0.00 0.3 54.5 0.0
01/17/2019 12:00 0.00 13.0 12.2 29.70 5.50 15.75 0.00 0.0 49.5 0.0
01/17/2019 11:00 0.00 11.0 17.9 29.73 3.50 12.50 0.00 0.3 64.0 0.0
01/17/2019 10:00 0.00 9.0 23.4 29.73 3.25 13.00 0.00 0.0 55.0 0.0
01/17/2019 09:00 0.00 7.0 33.0 29.70 2.50 10.75 0.00 1.0 103.0 0.0
01/17/2019 08:00 0.00 6.0 35.7 29.68 3.25 11.75 0.00 0.3 78.0 0.0
01/17/2019 07:00 0.00 6.0 37.3 29.67 3.00 12.50 0.00 0.0 48.3 0.0
01/17/2019 06:00 0.00 7.0 38.2 29.65 3.00 15.25 0.00 0.0 63.8 0.0
01/17/2019 05:00 0.00 8.0 37.3 29.63 2.25 11.75 0.00 0.0 69.5 0.0
01/17/2019 04:00 0.00 9.0 41.1 29.61 4.75 16.50 0.00 0.0 43.5 0.0
01/17/2019 03:00 0.00 10.0 39.6 29.58 3.00 12.00 0.00 0.3 69.3 0.0
01/17/2019 02:00 0.00 11.0 39.3 29.55 5.25 14.75 0.00 0.0 38.3 0.0
01/17/2019 01:00 0.00 13.0 39.1 29.51 5.25 14.00 0.00 0.0 46.0 0.0
01/17/2019 00:00 0.00 16.0 29.9 29.48 4.50 14.50 0.00 0.0 51.0 0.0
01/16/2019 23:00 0.00 19.0 21.3 29.45 4.75 16.50 0.00 0.0 20.0 0.0
01/16/2019 22:00 0.00 23.0 22.1 29.40 7.25 21.00 0.00 0.0 32.5 0.0
01/16/2019 21:00 0.00 27.0 33.2 29.34 6.25 20.00 0.00 0.0 27.3 0.0
01/16/2019 20:00 0.00 30.0 69.4 29.30 5.75 16.25 0.00 0.0 48.0 0.0
01/16/2019 19:00 0.00 32.0 60.0 29.25 5.75 16.50 0.00 0.5 55.3 0.0
01/16/2019 18:00 0.00 33.0 50.9 29.23 5.50 16.25 0.00 0.5 58.3 0.0
01/16/2019 17:00 0.00 33.0 48.5 29.20 3.00 12.00 0.00 1.0 60.5 0.0
01/16/2019 16:00 0.00 34.0 43.5 29.19 4.00 13.50 0.00 0.5 49.8 0.0
01/16/2019 15:00 0.00 35.0 37.3 29.18 5.75 17.25 0.00 0.5 53.8 0.0
01/16/2019 14:00 0.00 37.0 34.7 29.18 5.00 14.75 0.00 0.3 50.3 0.0
01/16/2019 13:00 0.00 33.0 52.4 29.18 6.75 17.25 0.00 0.3 52.3 0.0
01/16/2019 12:00 0.00 32.0 52.8 29.19 6.50 17.00 0.00 0.3 53.3 0.0
01/16/2019 11:00 0.00 31.0 55.1 29.22 4.00 15.00 0.00 0.3 55.0 0.0
01/16/2019 10:00 0.00 28.0 62.2 29.24 2.50 10.75 0.00 0.5 62.5 0.0
01/16/2019 09:00 0.00 27.0 62.1 29.24 2.50 9.50 0.00 0.5 53.8 0.0
01/16/2019 08:00 0.00 26.0 66.5 29.25 0.00 1.50 0.00 0.5 66.3 0.0
01/16/2019 07:00 0.00 24.0 71.7 29.27 0.00 1.25 0.00 0.5 51.8 0.0
01/16/2019 06:00 0.00 20.0 73.7 29.28 0.00 0.75 0.00 0.0 18.0 0.0
01/16/2019 05:00 0.00 19.0 76.7 29.29 0.00 0.00 0.00 0.0 10.3 0.0
01/16/2019 04:00 0.00 21.0 74.9 29.30 0.00 0.00 0.00 0.0 0.0 0.0
01/16/2019 03:00 0.00 24.0 72.2 29.33 0.00 0.00 0.00 0.0 0.0 0.0
01/16/2019 02:00 0.00 23.0 72.4 29.34 0.00 0.00 0.00 0.0 0.0 0.0
01/16/2019 01:00 0.00 24.0 71.7 29.35 0.00 0.00 0.00 0.0 0.0 0.0
01/16/2019 00:00 0.00 24.0 71.6 29.37 0.00 0.00 0.00 0.0 0.0 0.0
01/15/2019 23:00 0.00 24.0 70.3 29.39 0.00 0.00 0.00 0.0 0.0 0.0
01/15/2019 22:00 0.00 23.0 69.9 29.40 0.00 0.00 0.00 0.0 0.0 0.0
01/15/2019 21:00 0.00 24.0 69.0 29.40 0.00 0.00 0.00 0.8 64.8 0.0
01/15/2019 20:00 0.00 23.0 69.9 29.40 0.00 0.00 0.00 0.0 26.5 0.0
01/15/2019 19:00 0.00 24.0 67.7 29.41 0.00 3.00 0.00 1.3 79.0 0.0
01/15/2019 18:00 0.00 26.0 62.9 29.40 0.00 3.75 0.00 0.8 87.8 0.0
01/15/2019 17:00 0.00 27.0 59.1 29.38 0.50 7.00 0.00 0.0 58.8 0.0
01/15/2019 16:00 0.00 29.0 55.3 29.38 1.50 10.25 0.00 0.3 47.5 0.0
01/15/2019 15:00 0.00 31.0 50.4 29.37 2.25 11.00 0.00 0.0 33.5 0.0
01/15/2019 14:00 0.00 34.0 42.2 29.36 3.25 12.75 0.00 0.0 58.5 0.0
01/15/2019 13:00 0.00 30.0 52.9 29.36 3.50 14.50 0.00 0.0 55.0 0.0
01/15/2019 12:00 0.00 30.0 50.2 29.38 2.75 12.00 0.00 0.0 54.0 0.0
01/15/2019 11:00 0.00 29.0 52.5 29.41 0.25 5.75 0.00 0.8 72.8 0.0
01/15/2019 10:00 0.00 24.0 58.7 29.41 0.25 3.75 0.00 1.0 82.0 0.0
01/15/2019 09:00 0.00 16.0 64.9 29.40 0.00 0.00 0.00 4.5 161.0 0.0
01/15/2019 08:00 0.00 12.0 66.6 29.39 0.00 0.00 0.00 0.0 5.8 0.0
01/15/2019 07:00 0.00 7.0 68.6 29.37 0.00 0.00 0.00 0.0 0.0 0.0
01/15/2019 06:00 0.00 7.0 68.0 29.35 0.00 0.00 0.00 0.0 0.0 0.0
01/15/2019 05:00 0.00 7.0 68.2 29.35 0.00 0.00 0.00 0.0 0.0 0.0
01/15/2019 04:00 0.00 6.0 68.5 29.36 0.00 0.00 0.00 0.0 0.0 0.0
01/15/2019 03:00 0.00 7.0 68.7 29.36 0.00 0.00 0.00 0.0 0.0 0.0
01/15/2019 02:00 0.00 8.0 70.0 29.37 0.00 0.00 0.00 0.0 0.0 0.0
01/15/2019 01:00 0.00 8.0 69.8 29.38 0.00 0.00 0.00 0.0 0.0 0.0
01/15/2019 00:00 0.00 10.0 70.8 29.40 0.00 0.00 0.00 0.0 0.0 0.0
01/14/2019 23:00 0.00 10.0 72.6 29.41 0.00 0.00 0.00 0.0 0.0 0.0
01/14/2019 22:00 0.00 11.0 74.4 29.42 0.00 0.00 0.00 0.0 0.0 0.0
01/14/2019 21:00 0.00 13.0 72.0 29.42 0.00 0.00 0.00 0.0 0.0 0.0
01/14/2019 20:00 0.00 14.0 69.7 29.43 0.00 0.00 0.00 0.0 0.0 0.0
01/14/2019 19:00 0.00 17.0 64.5 29.44 0.00 0.00 0.00 0.0 0.0 0.0
01/14/2019 18:00 0.00 19.0 61.9 29.45 0.00 0.00 0.00 0.0 0.0 0.0
01/14/2019 17:00 0.00 21.0 53.7 29.46 0.00 0.00 0.00 0.0 0.0 0.0
01/14/2019 16:00 0.00 24.0 43.8 29.48 0.00 0.00 0.00 1.3 75.3 0.0
01/14/2019 15:00 0.00 27.0 31.4 29.50 0.00 0.50 0.00 1.0 76.3 0.0
01/14/2019 14:00 0.00 28.0 25.9 29.52 0.00 1.75 0.00 1.3 102.3 0.0
01/14/2019 13:00 0.00 20.0 50.0 29.54 0.00 0.00 0.00 0.8 89.3 0.0
01/14/2019 12:00 0.00 17.0 53.7 29.57 0.00 0.00 0.00 1.3 131.3 0.0
01/14/2019 11:00 0.00 14.0 59.9 29.62 0.00 0.00 0.00 1.8 97.5 0.0
01/14/2019 10:00 0.00 10.0 65.5 29.64 0.00 0.00 0.00 7.0 88.8 0.0
01/14/2019 09:00 0.00 5.0 63.2 29.64 0.00 0.00 0.00 0.0 0.0 0.0
01/14/2019 08:00 0.00 -1.0 62.5 29.64 0.00 0.00 0.00 0.0 0.0 0.0
01/14/2019 07:00 0.00 -1.0 62.9 29.65 0.00 0.00 0.00 0.0 0.0 0.0
01/14/2019 06:00 0.00 -1.0 63.4 29.64 0.00 0.00 0.00 0.0 0.0 0.0
01/14/2019 05:00 0.00 0.0 64.6 29.65 0.00 0.00 0.00 0.0 0.0 0.0
01/14/2019 04:00 0.00 1.0 65.0 29.67 0.00 0.00 0.00 0.0 0.0 0.0
01/14/2019 03:00 0.00 2.0 65.3 29.70 0.00 0.00 0.00 0.0 0.0 0.0
01/14/2019 02:00 0.00 2.0 65.8 29.70 0.00 0.00 0.00 0.0 0.0 0.0
01/14/2019 01:00 0.00 4.0 67.0 29.69 0.00 0.00 0.00 0.0 0.0 0.0
01/14/2019 00:00 0.00 4.0 67.9 29.71 0.00 0.00 0.00 0.0 0.0 0.0
01/13/2019 23:00 0.00 6.0 68.2 29.72 0.00 0.00 0.00 0.0 0.0 0.0
01/13/2019 22:00 0.00 7.0 69.5 29.72 0.00 0.00 0.00 0.0 0.0 0.0
01/13/2019 21:00 0.00 9.0 70.6 29.72 0.00 0.00 0.00 0.0 0.0 0.0
01/13/2019 20:00 0.00 10.0 69.6 29.73 0.00 0.00 0.00 0.0 0.0 0.0
01/13/2019 19:00 0.00 12.0 67.0 29.73 0.00 0.00 0.00 0.0 0.0 0.0
01/13/2019 18:00 0.00 15.0 60.8 29.72 0.00 0.00 0.00 0.0 0.0 0.0
01/13/2019 17:00 0.00 18.0 53.1 29.72 0.00 0.00 0.00 0.0 0.0 0.0
01/13/2019 16:00 0.00 20.0 45.6 29.72 0.00 0.00 0.00 0.0 8.8 0.0
01/13/2019 15:00 0.00 23.0 27.6 29.72 0.00 0.00 0.00 0.8 80.3 0.0
01/13/2019 14:00 0.00 26.0 19.1 29.73 0.00 0.00 0.00 1.0 87.3 0.0
01/13/2019 13:00 0.00 18.0 40.0 29.75 0.00 1.25 0.00 0.8 73.8 0.0
01/13/2019 12:00 0.00 16.0 43.5 29.77 0.00 4.00 0.00 1.0 100.5 0.0
01/13/2019 11:00 0.00 13.0 48.2 29.80 0.00 1.50 0.00 1.0 89.0 0.0
01/13/2019 10:00 0.00 11.0 53.9 29.81 0.00 0.00 0.00 0.0 68.0 0.0
01/13/2019 09:00 0.00 7.0 60.7 29.80 0.00 0.00 0.00 0.0 0.0 0.0
01/13/2019 08:00 0.00 1.0 65.5 29.78 0.00 0.00 0.00 0.0 0.0 0.0
01/13/2019 07:00 0.00 4.0 65.0 29.79 0.00 0.00 0.00 0.0 0.0 0.0
01/13/2019 06:00 0.00 5.0 64.2 29.78 0.00 0.00 0.00 0.0 0.0 0.0
01/13/2019 05:00 0.00 5.0 65.9 29.77 0.00 0.00 0.00 0.0 0.0 0.0
01/13/2019 04:00 0.00 8.0 60.7 29.76 0.00 0.00 0.00 0.0 0.0 0.0
01/13/2019 03:00 0.00 8.0 60.5 29.78 0.50 3.25 0.00 0.3 51.0 0.0
01/13/2019 02:00 0.00 10.0 53.2 29.77 0.75 7.00 0.00 0.0 44.3 0.0
01/13/2019 01:00 0.00 10.0 52.8 29.77 0.75 7.25 0.00 0.3 54.8 0.0
01/13/2019 00:00 0.00 11.0 52.5 29.76 1.25 8.25 0.00 0.5 65.3 0.0
01/12/2019 23:00 0.00 11.0 49.5 29.77 1.75 9.25 0.00 0.8 84.5 0.0
01/12/2019 22:00 0.00 12.0 49.5 29.77 2.75 10.75 0.00 0.3 66.5 0.0
01/12/2019 21:00 0.00 12.0 46.6 29.77 3.25 13.00 0.00 0.3 51.3 0.0
01/12/2019 20:00 0.00 12.0 45.2 29.77 3.75 13.50 0.00 0.0 49.0 0.0
01/12/2019 19:00 0.00 13.0 45.2 29.77 5.00 17.75 0.00 0.0 54.8 0.0
01/12/2019 18:00 0.00 13.0 44.3 29.76 5.75 18.50 0.00 0.0 52.5 0.0
01/12/2019 17:00 0.00 14.0 41.5 29.75 6.50 19.00 0.00 0.0 49.3 0.0
01/12/2019 16:00 0.00 15.0 35.0 29.74 7.50 19.50 0.00 0.0 45.8 0.0
01/12/2019 15:00 0.00 16.0 27.3 29.73 7.75 21.25 0.00 0.0 47.5 0.0
01/12/2019 14:00 0.00 17.0 23.2 29.72 9.00 22.00 0.00 0.0 52.5 0.0
01/12/2019 13:00 0.00 14.0 25.0 29.70 7.25 23.00 0.00 0.0 56.3 0.0
01/12/2019 12:00 0.00 13.0 31.5 29.72 9.50 22.75 0.25 0.0 52.0 0.0
01/12/2019 11:00 0.00 11.0 39.3 29.73 7.00 21.50 0.00 0.0 48.3 0.0
01/12/2019 10:00 0.00 9.0 42.4 29.74 7.00 20.25 0.00 0.5 72.0 0.0
01/12/2019 09:00 0.00 7.0 43.9 29.73 7.75 19.50 0.00 0.0 56.5 0.0
01/12/2019 08:00 0.00 6.0 44.2 29.72 7.50 19.00 0.00 0.5 66.5 0.0
01/12/2019 07:00 0.00 6.0 45.9 29.71 4.50 13.50 0.00 0.3 63.0 0.0
01/12/2019 06:00 0.00 6.0 47.6 29.69 5.00 16.00 0.00 0.5 72.5 0.0
01/12/2019 05:00 0.00 6.0 47.5 29.68 5.75 15.50 0.00 0.0 53.0 0.0
01/12/2019 04:00 0.00 5.0 47.5 29.67 5.75 15.25 0.00 0.0 52.5 0.0
01/12/2019 03:00 0.00 6.0 48.2 29.66 7.00 18.25 0.00 0.0 61.0 0.0
01/12/2019 02:00 0.00 6.0 49.8 29.64 4.50 15.50 0.00 0.0 66.3 0.0
01/12/2019 01:00 0.00 6.0 47.3 29.61 2.75 11.75 0.00 0.0 47.8 0.0
01/12/2019 00:00 0.00 6.0 48.2 29.59 8.25 19.50 0.25 0.0 56.5 0.0
01/11/2019 23:00 0.00 5.0 48.7 29.59 6.75 18.50 0.00 0.0 59.5 0.0
01/11/2019 22:00 0.00 5.0 47.3 29.58 7.50 18.50 0.00 0.0 47.3 0.0
01/11/2019 21:00 0.00 5.0 47.1 29.56 9.25 22.50 0.00 0.0 56.5 0.0
01/11/2019 20:00 0.00 5.0 46.9 29.55 8.25 19.75 0.50 0.0 45.5 0.0
01/11/2019 19:00 0.00 6.0 44.9 29.53 7.25 23.25 0.25 0.0 53.8 0.0
01/11/2019 18:00 0.00 9.0 46.2 29.52 7.75 23.00 0.25 0.0 36.0 0.0
01/11/2019 17:00 0.00 11.0 42.5 29.49 6.00 19.00 0.00 0.0 43.3 0.0
01/11/2019 16:00 0.00 13.0 40.6 29.47 8.25 24.00 0.00 0.0 35.0 0.0
01/11/2019 15:00 0.00 15.0 37.4 29.44 9.00 22.50 0.25 0.0 41.8 0.0
01/11/2019 14:00 0.00 17.0 35.5 29.41 9.75 24.75 0.00 0.0 37.0 0.0
01/11/2019 13:00 0.00 14.0 47.0 29.38 11.75 30.00 0.75 0.0 47.8 0.0
01/11/2019 12:00 0.00 14.0 49.6 29.36 8.25 24.00 0.00 0.0 52.8 0.0
01/11/2019 11:00 0.00 14.0 52.9 29.36 7.25 21.25 0.00 0.0 47.5 0.0
01/11/2019 10:00 0.00 14.0 54.2 29.34 6.25 19.50 0.00 0.0 42.5 0.0
01/11/2019 09:00 0.00 13.0 54.1 29.32 6.25 20.50 0.00 0.0 44.3 0.0
01/11/2019 08:00 0.00 12.0 56.0 29.28 8.25 22.00 0.00 0.0 67.0 0.0
01/11/2019 07:00 0.00 12.0 56.9 29.26 7.50 20.75 0.00 0.0 37.3 0.0
01/11/2019 06:00 0.00 12.0 56.0 29.23 9.25 24.25 0.00 0.0 45.8 0.0
01/11/2019 05:00 0.00 12.0 57.7 29.20 7.75 22.00 0.25 0.0 47.3 0.0
01/11/2019 04:00 0.00 13.0 57.5 29.19 6.75 19.00 0.00 0.0 40.3 0.0
01/11/2019 03:00 0.00 14.0 58.2 29.18 6.50 19.75 0.00 0.0 50.5 0.0
01/11/2019 02:00 0.00 14.0 59.4 29.15 5.25 17.50 0.00 0.0 45.8 0.0
01/11/2019 01:00 0.00 15.0 62.6 29.13 6.00 17.50 0.00 0.0 44.8 0.0
01/11/2019 00:00 0.00 17.0 61.5 29.11 5.50 18.00 0.00 0.3 52.0 0.0
01/10/2019 23:00 0.00 17.0 63.1 29.10 5.75 18.25 0.00 0.0 48.3 0.0
01/10/2019 22:00 0.00 18.0 60.3 29.08 3.75 15.50 0.00 0.5 79.3 0.0
01/10/2019 21:00 0.00 18.0 59.3 29.07 4.00 14.00 0.00 0.8 90.0 0.0
01/10/2019 20:00 0.00 19.0 61.1 29.03 5.00 17.50 0.00 0.0 40.5 0.0
01/10/2019 19:00 0.00 20.0 62.3 28.99 6.50 19.50 0.00 0.0 38.0 0.0
01/10/2019 18:00 0.00 21.0 61.1 28.98 5.25 18.50 0.00 0.0 48.3 0.0
01/10/2019 17:00 0.00 22.0 61.8 28.95 5.75 18.50 0.00 0.0 50.8 0.0
01/10/2019 16:00 0.00 24.0 60.3 28.92 6.75 20.25 0.00 0.0 36.8 0.0
01/10/2019 15:00 0.00 26.0 59.5 28.89 6.00 21.00 0.00 0.0 42.5 0.0
01/10/2019 14:00 0.00 27.0 58.3 28.86 6.75 21.00 0.00 0.0 36.0 0.0
01/10/2019 13:00 0.00 28.0 52.5 28.83 6.50 20.50 0.00 0.0 37.0 0.0
01/10/2019 12:00 0.00 30.0 56.3 28.81 3.50 14.75 0.00 0.3 49.5 0.0
01/10/2019 11:00 0.00 29.0 57.6 28.82 4.00 16.25 0.00 0.0 52.0 0.0
01/10/2019 10:00 0.00 29.0 65.7 28.81 5.75 16.25 0.00 0.0 50.0 0.0
01/10/2019 09:00 0.00 28.0 64.3 28.79 4.25 14.25 0.00 0.5 80.8 0.0
01/10/2019 08:00 0.00 28.0 67.8 28.77 3.75 12.00 0.00 0.0 45.5 0.0
01/10/2019 07:00 0.00 28.0 68.0 28.75 5.50 15.25 0.00 0.0 38.5 0.0
01/10/2019 06:00 0.00 28.0 68.1 28.75 3.50 13.25 0.00 0.3 51.3 0.0
01/10/2019 05:00 0.00 28.0 69.1 28.72 4.25 13.00 0.00 0.0 30.3 0.0
01/10/2019 04:00 -- -- -- -- -- -- -- -- -- --
01/10/2019 03:00 -- -- -- -- -- -- -- -- -- --
01/10/2019 02:00 -- -- -- -- -- -- -- -- -- --